VLVT/VTE METAR and TAF weather

Enter ICAO airport designator
Station Type Date Time Source
VLVT METAR 2021/07/30 07:00 UTC NOAA

VLVT 300700Z 32010KT 9999 SCT016 BKN200 33/24 Q1004 NOSIG


Station Type Date Time Source
VLVT Decoded METAR 2021/07/30 07:00 UTC NOAA

Vientiane, Laos (VLVT) 17-57N 102-34E 171M
Jul 30, 2021 - 03:00 AM EDT / 2021.07.30 0700 UTC
Wind: from the NW (320 degrees) at 12 MPH (10 KT):0
Visibility: greater than 7 mile(s):0
Sky conditions: mostly cloudy
Temperature: 91 F (33 C)
Heat index: 101.5 F (38.6 C):1
Dew Point: 75 F (24 C)
Relative Humidity: 59%
Pressure (altimeter): 29.65 in. Hg (1004 hPa)
ob: VLVT 300700Z 32010KT 9999 SCT016 BKN200 33/24 Q1004 NOSIG
cycle: 7

Station Type Date Time Source
VLVT TAF 2021/07/30 06:36 UTC NOAA

TAF TAF VLVT 300500Z 3006/3106 27008KT 8000 SCT016 BKN200

Example: see airport list